Time;durP1;ratioP1;P1;durP2;ratioP2;P2;SDS_P1;SDS_P2;PMS_P1;PMS_P2;Temp;Humidity;BMP_temperature;BMP_pressure;BME280_temperature;BME280_humidity;BME280_pressure;Samples;Min_cycle;Max_cycle;Signal;HPM_P1;HPM_P2
2022/08/13 00:01:43;;;;;;;2.73;0.90;;;;;;;;;;5284839;28;20089;-67
2022/08/13 00:04:15;;;;;;;3.78;1.10;;;;;;;;;;5284059;28;20325;-67
2022/08/13 00:07:03;;;;;;;5.75;0.90;;;;;;;;;;5284774;28;20047;-67
2022/08/13 00:09:35;;;;;;;4.32;0.90;;;;;;;;;;5283796;28;20149;-67
2022/08/13 00:15:00;;;;;;;3.65;1.00;;;;;;;;;;5285169;28;20429;-67
2022/08/13 00:17:33;;;;;;;5.30;1.08;;;;;;;;;;5282751;28;20024;-67
2022/08/13 00:20:06;;;;;;;9.45;1.23;;;;;;;;;;5283718;28;20020;-67
2022/08/13 00:22:38;;;;;;;4.80;0.90;;;;;;;;;;5283732;28;20021;-67
2022/08/13 00:25:10;;;;;;;8.23;1.02;;;;;;;;;;5282953;28;20024;-67
2022/08/13 00:27:47;;;;;;;5.18;0.90;;;;;;;;;;5282991;28;20070;-67
2022/08/13 00:30:18;;;;;;;3.45;1.17;;;;;;;;;;5284025;28;20394;-67
2022/08/13 00:32:50;;;;;;;7.45;1.20;;;;;;;;;;5282986;28;20017;-67
2022/08/13 00:35:21;;;;;;;5.28;1.10;;;;;;;;;;5283646;28;20069;-67
2022/08/13 00:37:53;;;;;;;3.67;1.00;;;;;;;;;;5282796;28;20456;-67
2022/08/13 00:40:25;;;;;;;5.03;1.10;;;;;;;;;;5283444;28;20312;-66
2022/08/13 00:43:02;;;;;;;4.40;1.10;;;;;;;;;;5283271;28;20016;-68
2022/08/13 00:45:34;;;;;;;7.88;1.15;;;;;;;;;;5282053;28;20070;-66
2022/08/13 00:51:13;;;;;;;3.72;0.90;;;;;;;;;;5218552;28;20022;-67
2022/08/13 00:53:44;;;;;;;4.63;1.55;;;;;;;;;;5271915;28;20028;-67
2022/08/13 00:56:17;;;;;;;3.83;1.10;;;;;;;;;;5282678;28;20030;-67
2022/08/13 00:58:49;;;;;;;6.30;1.10;;;;;;;;;;5281372;28;20784;-66
2022/08/13 01:01:23;;;;;;;5.47;1.10;;;;;;;;;;5282888;28;20027;-67
2022/08/13 01:03:55;;;;;;;3.20;1.13;;;;;;;;;;5282309;28;20020;-67
2022/08/13 01:06:26;;;;;;;5.68;1.00;;;;;;;;;;5281702;28;20349;-67
2022/08/13 01:08:57;;;;;;;4.93;0.90;;;;;;;;;;5282647;28;20555;-68
2022/08/13 01:11:32;;;;;;;5.93;0.95;;;;;;;;;;5282450;28;20316;-67
2022/08/13 01:14:05;;;;;;;2.65;0.98;;;;;;;;;;5281961;28;20032;-68
2022/08/13 01:16:37;;;;;;;3.97;0.88;;;;;;;;;;5282201;28;20035;-68
2022/08/13 01:19:08;;;;;;;4.45;1.40;;;;;;;;;;5282527;28;20008;-68
2022/08/13 01:21:41;;;;;;;4.72;1.13;;;;;;;;;;5281345;28;20070;-68
2022/08/13 01:24:13;;;;;;;3.05;0.90;;;;;;;;;;5282557;28;20116;-68
2022/08/13 01:26:44;;;;;;;7.57;0.97;;;;;;;;;;5281244;28;20024;-68
2022/08/13 01:29:18;;;;;;;5.30;1.40;;;;;;;;;;5282756;28;20736;-68
2022/08/13 01:31:51;;;;;;;3.75;1.33;;;;;;;;;;5282364;28;20032;-68
2022/08/13 01:34:23;;;;;;;9.93;1.45;;;;;;;;;;5281771;28;20013;-68
2022/08/13 01:36:54;;;;;;;6.38;1.30;;;;;;;;;;5281909;28;20029;-68
2022/08/13 01:39:26;;;;;;;5.00;1.10;;;;;;;;;;5281840;28;20020;-68
2022/08/13 01:41:57;;;;;;;4.50;1.15;;;;;;;;;;5281240;28;20035;-68
2022/08/13 01:44:32;;;;;;;6.78;1.60;;;;;;;;;;5281589;28;20104;-68
2022/08/13 01:52:45;;;;;;;5.65;1.27;;;;;;;;;;5281554;28;20025;-67
2022/08/13 01:55:18;;;;;;;5.07;1.50;;;;;;;;;;5281144;28;20021;-69
2022/08/13 01:57:50;;;;;;;6.90;1.20;;;;;;;;;;5281349;28;20082;-68
2022/08/13 02:00:23;;;;;;;3.90;1.40;;;;;;;;;;5281502;28;20352;-68
2022/08/13 02:02:54;;;;;;;5.57;1.40;;;;;;;;;;5280765;28;20021;-68
2022/08/13 02:05:26;;;;;;;4.60;1.70;;;;;;;;;;5281214;28;20046;-69
2022/08/13 02:07:57;;;;;;;2.53;1.33;;;;;;;;;;5281664;28;20024;-68
2022/08/13 02:10:29;;;;;;;8.02;1.55;;;;;;;;;;5280480;28;20422;-68
2022/08/13 02:13:00;;;;;;;7.35;1.50;;;;;;;;;;5281883;28;20051;-68
2022/08/13 02:15:31;;;;;;;11.27;2.72;;;;;;;;;;5281090;28;20021;-68
2022/08/13 02:18:04;;;;;;;6.65;1.70;;;;;;;;;;5280860;28;20490;-68
2022/08/13 02:20:36;;;;;;;5.57;1.67;;;;;;;;;;5281374;28;20024;-68
2022/08/13 02:23:07;;;;;;;3.38;1.77;;;;;;;;;;5280565;28;20066;-68
2022/08/13 02:25:40;;;;;;;6.47;1.95;;;;;;;;;;5281043;28;20050;-68
2022/08/13 02:28:14;;;;;;;4.38;1.52;;;;;;;;;;5281297;28;20020;-68
2022/08/13 02:30:47;;;;;;;3.38;1.77;;;;;;;;;;5280419;28;20479;-68
2022/08/13 02:33:20;;;;;;;7.43;1.65;;;;;;;;;;5281481;28;20024;-69
2022/08/13 02:35:51;;;;;;;8.02;1.50;;;;;;;;;;5280907;28;20066;-68
2022/08/13 02:38:23;;;;;;;4.97;1.67;;;;;;;;;;5280449;28;20066;-68
2022/08/13 02:43:46;;;;;;;6.18;1.77;;;;;;;;;;5280846;28;20029;-68
2022/08/13 02:46:21;;;;;;;8.13;1.90;;;;;;;;;;5280534;28;20029;-69
2022/08/13 02:48:52;;;;;;;7.63;2.10;;;;;;;;;;5280588;28;20025;-68
2022/08/13 02:51:24;;;;;;;3.03;1.70;;;;;;;;;;5279969;28;20100;-68
2022/08/13 02:53:55;;;;;;;4.25;1.80;;;;;;;;;;5280758;28;20278;-69
2022/08/13 02:56:27;;;;;;;5.00;1.83;;;;;;;;;;5280534;28;20490;-69
2022/08/13 02:58:58;;;;;;;7.40;1.77;;;;;;;;;;5280122;28;20481;-68
2022/08/13 03:01:30;;;;;;;3.40;1.90;;;;;;;;;;5280631;28;20103;-69
2022/08/13 03:04:01;;;;;;;4.60;1.63;;;;;;;;;;5281191;28;20274;-68
2022/08/13 03:06:33;;;;;;;6.75;2.15;;;;;;;;;;5280182;28;20016;-68
2022/08/13 03:09:04;;;;;;;9.80;2.00;;;;;;;;;;5281519;28;20421;-68
2022/08/13 03:11:36;;;;;;;4.90;1.85;;;;;;;;;;5280906;28;20042;-68
2022/08/13 03:14:09;;;;;;;10.13;2.40;;;;;;;;;;5280131;28;20024;-68
2022/08/13 03:16:40;;;;;;;6.05;1.70;;;;;;;;;;5280513;28;20021;-68
2022/08/13 03:19:12;;;;;;;8.20;1.77;;;;;;;;;;5281033;28;20051;-68
2022/08/13 03:21:43;;;;;;;9.82;2.17;;;;;;;;;;5279849;28;20369;-68
2022/08/13 03:24:17;;;;;;;4.75;2.03;;;;;;;;;;5280793;28;20147;-68
2022/08/13 03:26:48;;;;;;;8.32;2.17;;;;;;;;;;5279681;28;20024;-68
2022/08/13 03:29:21;;;;;;;4.88;2.00;;;;;;;;;;5280899;28;20009;-68
2022/08/13 03:31:52;;;;;;;8.90;1.90;;;;;;;;;;5280485;28;20423;-68
2022/08/13 03:34:23;;;;;;;4.20;2.10;;;;;;;;;;5280057;28;20017;-68
2022/08/13 03:36:54;;;;;;;4.25;1.75;;;;;;;;;;5280361;28;20032;-68
2022/08/13 03:39:26;;;;;;;5.60;1.58;;;;;;;;;;5280563;28;20016;-68
2022/08/13 03:41:59;;;;;;;8.77;2.45;;;;;;;;;;5279723;28;20031;-67
2022/08/13 03:44:30;;;;;;;10.85;2.35;;;;;;;;;;5280127;28;20023;-66
2022/08/13 03:47:03;;;;;;;8.03;2.07;;;;;;;;;;5280666;28;20534;-67
2022/08/13 03:49:36;;;;;;;10.55;2.20;;;;;;;;;;5279243;28;20279;-67
2022/08/13 03:52:07;;;;;;;6.60;2.25;;;;;;;;;;5280417;28;20052;-67
2022/08/13 03:54:39;;;;;;;5.73;2.40;;;;;;;;;;5279328;28;20524;-67
2022/08/13 03:57:11;;;;;;;6.97;2.38;;;;;;;;;;5280493;28;20607;-67
2022/08/13 03:59:43;;;;;;;20.23;3.65;;;;;;;;;;5279759;28;20040;-67
2022/08/13 04:02:15;;;;;;;18.48;2.20;;;;;;;;;;5280775;28;20012;-67
2022/08/13 04:04:47;;;;;;;7.88;2.45;;;;;;;;;;5283933;28;20044;-68
2022/08/13 04:07:22;;;;;;;5.18;2.33;;;;;;;;;;5284044;28;20095;-68
2022/08/13 04:09:54;;;;;;;7.55;2.40;;;;;;;;;;5282842;28;20426;-68
2022/08/13 04:12:27;;;;;;;8.82;2.83;;;;;;;;;;5283693;28;20029;-68
2022/08/13 04:14:59;;;;;;;11.48;2.50;;;;;;;;;;5284038;28;20025;-68
2022/08/13 04:17:30;;;;;;;7.82;2.42;;;;;;;;;;5282606;28;20058;-68
2022/08/13 04:20:06;;;;;;;12.32;2.53;;;;;;;;;;5283591;28;20429;-68
2022/08/13 04:22:37;;;;;;;10.10;1.98;;;;;;;;;;5282541;28;20060;-68
2022/08/13 04:25:09;;;;;;;10.18;2.38;;;;;;;;;;5283544;28;20021;-68
2022/08/13 04:27:40;;;;;;;14.70;3.28;;;;;;;;;;5283306;28;20025;-68
2022/08/13 04:30:16;;;;;;;6.88;2.80;;;;;;;;;;5282944;28;20329;-68
2022/08/13 04:32:48;;;;;;;7.63;2.40;;;;;;;;;;5283082;28;20070;-68
2022/08/13 04:35:20;;;;;;;3.45;2.15;;;;;;;;;;5283233;28;20045;-68
2022/08/13 04:37:51;;;;;;;9.13;2.80;;;;;;;;;;5281932;28;20432;-68
2022/08/13 04:40:22;;;;;;;8.47;3.07;;;;;;;;;;5283540;28;20664;-68
2022/08/13 04:42:54;;;;;;;5.15;2.35;;;;;;;;;;5283282;28;20298;-68
2022/08/13 04:45:27;;;;;;;8.20;2.22;;;;;;;;;;5282473;28;20016;-68
2022/08/13 04:48:04;;;;;;;6.40;2.50;;;;;;;;;;5283405;28;20024;-68
2022/08/13 04:50:36;;;;;;;6.88;2.42;;;;;;;;;;5282912;28;20032;-68
2022/08/13 04:53:20;;;;;;;12.07;2.63;;;;;;;;;;5282554;28;20024;-68
2022/08/13 04:55:52;;;;;;;6.70;2.75;;;;;;;;;;5282802;28;20023;-68
2022/08/13 04:58:24;;;;;;;10.73;2.33;;;;;;;;;;5282528;28;20040;-68
2022/08/13 05:00:56;;;;;;;5.63;2.53;;;;;;;;;;5282619;28;20040;-69
2022/08/13 05:03:29;;;;;;;4.07;2.17;;;;;;;;;;5282718;28;20074;-68
2022/08/13 05:06:00;;;;;;;6.32;2.38;;;;;;;;;;5282169;28;20023;-69
2022/08/13 05:08:32;;;;;;;8.32;2.25;;;;;;;;;;5282440;28;20107;-68
2022/08/13 05:11:03;;;;;;;6.13;2.13;;;;;;;;;;5282940;28;20316;-68
2022/08/13 05:13:36;;;;;;;9.40;2.92;;;;;;;;;;5281578;28;20029;-68
2022/08/13 05:16:08;;;;;;;8.35;2.78;;;;;;;;;;5282851;28;20133;-67
2022/08/13 05:18:45;;;;;;;9.48;2.20;;;;;;;;;;5282378;28;20028;-67
2022/08/13 05:21:16;;;;;;;12.68;2.50;;;;;;;;;;5282177;28;20024;-67
2022/08/13 05:23:50;;;;;;;4.77;2.47;;;;;;;;;;5282424;28;20112;-67
2022/08/13 05:26:25;;;;;;;8.65;2.78;;;;;;;;;;5281832;28;20354;-67
2022/08/13 05:29:04;;;;;;;7.45;3.55;;;;;;;;;;5282819;28;20104;-68
2022/08/13 05:31:35;;;;;;;7.50;2.72;;;;;;;;;;5282116;28;20021;-68
2022/08/13 05:34:07;;;;;;;3.97;2.43;;;;;;;;;;5282117;28;20036;-68
2022/08/13 05:36:43;;;;;;;7.32;2.67;;;;;;;;;;5282147;28;20285;-68
2022/08/13 05:39:14;;;;;;;4.93;2.47;;;;;;;;;;5282772;28;20142;-69
2022/08/13 05:41:48;;;;;;;5.73;2.53;;;;;;;;;;5281415;28;20024;-67
2022/08/13 05:44:22;;;;;;;9.23;2.58;;;;;;;;;;5282313;28;20266;-68
2022/08/13 05:46:53;;;;;;;6.72;2.63;;;;;;;;;;5282014;28;20021;-68
2022/08/13 05:49:24;;;;;;;10.75;2.80;;;;;;;;;;5281521;28;20352;-68
2022/08/13 05:51:57;;;;;;;8.05;2.28;;;;;;;;;;5281770;28;20665;-68
2022/08/13 05:54:31;;;;;;;3.63;2.00;;;;;;;;;;5280970;28;20636;-69
2022/08/13 05:57:02;;;;;;;5.22;2.15;;;;;;;;;;5281969;28;20095;-68
2022/08/13 06:05:13;;;;;;;7.25;2.28;;;;;;;;;;5282129;28;20032;-69
2022/08/13 06:07:45;;;;;;;6.13;1.60;;;;;;;;;;5281850;28;20024;-67
2022/08/13 06:10:18;;;;;;;5.68;2.05;;;;;;;;;;5280880;28;20116;-69
2022/08/13 06:12:50;;;;;;;7.35;1.73;;;;;;;;;;5281764;28;20048;-68
2022/08/13 06:15:22;;;;;;;6.32;1.50;;;;;;;;;;5281115;28;20442;-68
2022/08/13 06:17:53;;;;;;;8.75;1.95;;;;;;;;;;5281331;28;20027;-68
2022/08/13 06:20:24;;;;;;;4.45;1.77;;;;;;;;;;5281703;28;20410;-68
2022/08/13 06:22:57;;;;;;;12.30;1.88;;;;;;;;;;5280370;28;20020;-68
2022/08/13 06:25:29;;;;;;;9.73;2.08;;;;;;;;;;5280164;28;20092;-68
2022/08/13 06:28:00;;;;;;;7.85;1.70;;;;;;;;;;5281351;28;20465;-68
2022/08/13 06:30:34;;;;;;;6.40;1.67;;;;;;;;;;5280230;28;20020;-69
2022/08/13 06:33:06;;;;;;;6.63;1.90;;;;;;;;;;5281268;28;20405;-68
2022/08/13 06:35:37;;;;;;;3.30;1.63;;;;;;;;;;5280758;28;20024;-68
2022/08/13 06:38:09;;;;;;;4.68;1.45;;;;;;;;;;5280305;28;20172;-68
2022/08/13 06:40:42;;;;;;;9.55;1.80;;;;;;;;;;5280995;28;20021;-68
2022/08/13 06:43:19;;;;;;;6.60;1.75;;;;;;;;;;5280428;28;20013;-67
2022/08/13 06:45:50;;;;;;;8.40;1.80;;;;;;;;;;5280989;28;20479;-68
2022/08/13 06:48:22;;;;;;;8.23;1.60;;;;;;;;;;5281121;28;20043;-67
2022/08/13 06:50:54;;;;;;;3.88;1.48;;;;;;;;;;5280777;28;20296;-68
2022/08/13 06:53:25;;;;;;;8.82;2.05;;;;;;;;;;5280601;28;20013;-67
2022/08/13 06:55:56;;;;;;;9.67;1.83;;;;;;;;;;5281158;28;20367;-68
2022/08/13 06:58:28;;;;;;;9.48;1.90;;;;;;;;;;5279755;28;20300;-68
2022/08/13 07:01:00;;;;;;;6.38;1.83;;;;;;;;;;5281318;28;20067;-67
2022/08/13 07:03:32;;;;;;;7.65;1.20;;;;;;;;;;5280830;28;20022;-68
2022/08/13 07:06:04;;;;;;;6.97;1.33;;;;;;;;;;5280305;28;20020;-68
2022/08/13 07:08:35;;;;;;;6.65;1.60;;;;;;;;;;5280918;28;20043;-68
2022/08/13 07:14:06;;;;;;;6.07;1.10;;;;;;;;;;5259554;28;20039;-68
2022/08/13 07:16:39;;;;;;;8.13;1.13;;;;;;;;;;5280830;28;20025;-69
2022/08/13 07:19:11;;;;;;;4.88;1.00;;;;;;;;;;5280483;28;20024;-69
2022/08/13 07:21:43;;;;;;;2.60;0.95;;;;;;;;;;5280985;28;20029;-69
2022/08/13 07:24:14;;;;;;;3.80;0.80;;;;;;;;;;5281680;28;20028;-69
2022/08/13 07:26:45;;;;;;;1.88;0.80;;;;;;;;;;5280281;28;20361;-69
2022/08/13 07:29:19;;;;;;;5.22;0.95;;;;;;;;;;5281188;28;20025;-69
2022/08/13 07:31:53;;;;;;;2.42;1.00;;;;;;;;;;5280943;28;20051;-69
2022/08/13 07:34:26;;;;;;;2.30;1.00;;;;;;;;;;5280281;28;20044;-69
2022/08/13 07:36:59;;;;;;;1.52;0.70;;;;;;;;;;5283537;28;20501;-69
2022/08/13 07:39:30;;;;;;;5.75;0.77;;;;;;;;;;5284107;28;20024;-69
2022/08/13 07:42:02;;;;;;;3.83;1.10;;;;;;;;;;5285050;28;20455;-69
2022/08/13 07:44:33;;;;;;;10.43;1.48;;;;;;;;;;5284955;28;20031;-68
2022/08/13 07:47:05;;;;;;;3.53;0.77;;;;;;;;;;5284865;28;20040;-69
2022/08/13 07:49:37;;;;;;;5.75;1.00;;;;;;;;;;5285074;28;20491;-68
2022/08/13 07:52:09;;;;;;;4.85;0.80;;;;;;;;;;5285584;28;20096;-69
2022/08/13 07:54:43;;;;;;;6.32;0.95;;;;;;;;;;5284263;28;20037;-68
2022/08/13 07:57:17;;;;;;;3.38;0.70;;;;;;;;;;5285179;28;20040;-69
2022/08/13 07:59:48;;;;;;;2.83;0.60;;;;;;;;;;5284865;28;20135;-69
2022/08/13 08:02:20;;;;;;;4.18;0.60;;;;;;;;;;5284492;28;20177;-69
2022/08/13 08:04:56;;;;;;;6.97;0.80;;;;;;;;;;5284245;28;20104;-68
2022/08/13 08:07:28;;;;;;;2.45;0.55;;;;;;;;;;5284241;28;20020;-69
2022/08/13 08:09:59;;;;;;;6.13;0.70;;;;;;;;;;5284007;28;20466;-68
2022/08/13 08:12:32;;;;;;;2.90;0.80;;;;;;;;;;5284414;28;20267;-68
2022/08/13 08:15:11;;;;;;;7.57;1.15;;;;;;;;;;5283950;28;20019;-68
2022/08/13 08:17:42;;;;;;;3.50;0.70;;;;;;;;;;5284188;28;20099;-68
2022/08/13 08:20:18;;;;;;;2.90;0.60;;;;;;;;;;5284465;28;20134;-68
2022/08/13 08:22:49;;;;;;;3.30;0.70;;;;;;;;;;5283951;28;20021;-68
2022/08/13 08:25:21;;;;;;;4.93;0.60;;;;;;;;;;5284916;28;20024;-69
2022/08/13 08:27:52;;;;;;;4.00;0.60;;;;;;;;;;5284187;28;20052;-68
2022/08/13 08:30:23;;;;;;;5.78;0.60;;;;;;;;;;5283445;28;20016;-70
2022/08/13 08:32:55;;;;;;;2.47;0.70;;;;;;;;;;5283656;28;20021;-71
2022/08/13 08:35:26;;;;;;;6.88;0.55;;;;;;;;;;5283217;28;20266;-71
2022/08/13 08:43:40;;;;;;;2.85;0.50;;;;;;;;;;5282150;28;20068;-71
2022/08/13 08:46:12;;;;;;;2.80;0.50;;;;;;;;;;5283276;28;20459;-72
2022/08/13 08:48:44;;;;;;;5.22;0.52;;;;;;;;;;5282233;28;20017;-72
2022/08/13 08:51:18;;;;;;;5.25;0.40;;;;;;;;;;5286331;28;20023;-71
2022/08/13 08:53:49;;;;;;;2.60;0.50;;;;;;;;;;5283911;28;20112;-72
2022/08/13 08:56:21;;;;;;;4.43;0.40;;;;;;;;;;5283218;28;20514;-72
2022/08/13 08:58:55;;;;;;;4.82;0.50;;;;;;;;;;5281720;28;20375;-71
2022/08/13 09:01:26;;;;;;;5.35;0.50;;;;;;;;;;5282901;28;20028;-72
2022/08/13 09:03:57;;;;;;;6.53;0.50;;;;;;;;;;5282293;28;20036;-71
2022/08/13 09:06:30;;;;;;;3.25;0.50;;;;;;;;;;5282464;28;20093;-72
2022/08/13 09:09:02;;;;;;;3.78;0.40;;;;;;;;;;5282836;28;20020;-71
2022/08/13 09:11:36;;;;;;;3.72;0.40;;;;;;;;;;5281912;28;20016;-71
2022/08/13 09:14:08;;;;;;;4.43;0.52;;;;;;;;;;5282638;28;20484;-71
2022/08/13 09:16:39;;;;;;;6.30;0.50;;;;;;;;;;5282280;28;20020;-71
2022/08/13 09:19:13;;;;;;;3.20;0.40;;;;;;;;;;5282063;28;20025;-71
2022/08/13 09:21:45;;;;;;;5.03;0.60;;;;;;;;;;5282477;28;20519;-72
2022/08/13 09:24:21;;;;;;;9.68;0.57;;;;;;;;;;5282445;28;20032;-71
2022/08/13 09:26:53;;;;;;;3.70;0.50;;;;;;;;;;5281763;28;20023;-71
2022/08/13 09:29:24;;;;;;;1.67;0.40;;;;;;;;;;5282917;28;20020;-72
2022/08/13 09:31:56;;;;;;;3.00;0.40;;;;;;;;;;5282795;28;20017;-71
2022/08/13 09:34:27;;;;;;;5.43;0.40;;;;;;;;;;5281778;28;20089;-72
2022/08/13 09:37:01;;;;;;;2.00;0.40;;;;;;;;;;5282909;28;20028;-72
2022/08/13 09:39:35;;;;;;;2.10;0.40;;;;;;;;;;5281653;28;20020;-72
2022/08/13 09:42:12;;;;;;;3.00;0.30;;;;;;;;;;5282886;28;20040;-72
2022/08/13 09:44:43;;;;;;;4.82;0.30;;;;;;;;;;5282436;28;20023;-72
2022/08/13 09:47:15;;;;;;;2.13;0.30;;;;;;;;;;5281944;28;20021;-72
2022/08/13 09:49:48;;;;;;;2.75;0.30;;;;;;;;;;5282287;28;20100;-72
2022/08/13 09:52:22;;;;;;;2.92;0.30;;;;;;;;;;5282996;28;20044;-72
2022/08/13 09:54:57;;;;;;;2.97;0.38;;;;;;;;;;5281896;28;20463;-72
2022/08/13 09:57:29;;;;;;;1.00;0.20;;;;;;;;;;5282610;28;20332;-73
2022/08/13 10:00:00;;;;;;;1.83;0.30;;;;;;;;;;5281570;28;20044;-71
2022/08/13 10:02:32;;;;;;;1.23;0.20;;;;;;;;;;5281136;28;20021;-73
2022/08/13 10:05:03;;;;;;;5.35;0.30;;;;;;;;;;5282528;28;20021;-74
2022/08/13 10:07:34;;;;;;;3.03;0.30;;;;;;;;;;5281241;28;20017;-72
2022/08/13 10:10:07;;;;;;;2.67;0.30;;;;;;;;;;5282332;28;20463;-73
2022/08/13 10:12:39;;;;;;;3.05;0.25;;;;;;;;;;5281927;28;20099;-73
2022/08/13 10:15:12;;;;;;;1.67;0.20;;;;;;;;;;5281816;28;20108;-73
2022/08/13 10:17:51;;;;;;;4.85;0.30;;;;;;;;;;5281838;28;20090;-73
2022/08/13 10:20:30;;;;;;;2.58;0.22;;;;;;;;;;5281993;28;20044;-73
2022/08/13 10:23:02;;;;;;;5.45;0.20;;;;;;;;;;5280894;28;20020;-73
2022/08/13 10:25:33;;;;;;;5.50;0.20;;;;;;;;;;5281760;28;20340;-72
2022/08/13 10:28:15;;;;;;;1.73;0.20;;;;;;;;;;5281904;28;20047;-73
2022/08/13 10:30:46;;;;;;;2.55;0.20;;;;;;;;;;5280985;28;20066;-73
2022/08/13 10:33:18;;;;;;;3.03;0.20;;;;;;;;;;5281642;28;20024;-72
2022/08/13 10:35:52;;;;;;;2.03;0.30;;;;;;;;;;5280859;28;20036;-73
2022/08/13 10:38:26;;;;;;;3.30;0.20;;;;;;;;;;5276446;28;20041;-73
2022/08/13 10:41:07;;;;;;;3.17;0.30;;;;;;;;;;5280555;28;20024;-72
2022/08/13 10:43:38;;;;;;;1.33;0.20;;;;;;;;;;5280922;28;20032;-71
2022/08/13 10:46:12;;;;;;;2.87;0.30;;;;;;;;;;5281535;28;20114;-71
2022/08/13 10:48:44;;;;;;;1.30;0.20;;;;;;;;;;5281195;28;20618;-71
2022/08/13 10:51:15;;;;;;;1.10;0.20;;;;;;;;;;5280766;28;20071;-72
2022/08/13 10:53:55;;;;;;;4.50;0.20;;;;;;;;;;5281181;28;20104;-72
2022/08/13 10:56:27;;;;;;;2.78;0.20;;;;;;;;;;5279890;28;20074;-71
2022/08/13 10:59:00;;;;;;;0.98;0.20;;;;;;;;;;5275775;28;20120;-74
2022/08/13 11:01:31;;;;;;;4.07;0.20;;;;;;;;;;5275900;28;20025;-73
2022/08/13 11:04:02;;;;;;;6.63;0.28;;;;;;;;;;5265581;28;20021;-71
2022/08/13 11:06:34;;;;;;;2.88;0.20;;;;;;;;;;5277148;28;20030;-67
2022/08/13 11:09:06;;;;;;;1.23;0.20;;;;;;;;;;5281226;28;20139;-68
2022/08/13 11:11:37;;;;;;;3.75;0.85;;;;;;;;;;5281625;28;20052;-69
2022/08/13 11:14:10;;;;;;;1.60;0.20;;;;;;;;;;5285697;28;20021;-69
2022/08/13 11:19:15;;;;;;;2.88;0.20;;;;;;;;;;5284728;28;20477;-69
2022/08/13 11:21:46;;;;;;;1.67;0.40;;;;;;;;;;5285268;28;20020;-69
2022/08/13 11:24:18;;;;;;;2.33;0.20;;;;;;;;;;5286273;28;20396;-71
2022/08/13 11:26:49;;;;;;;1.65;0.17;;;;;;;;;;5286598;28;20024;-69
2022/08/13 11:29:20;;;;;;;4.90;0.20;;;;;;;;;;5285612;28;20066;-69
2022/08/13 11:31:51;;;;;;;1.53;0.17;;;;;;;;;;5284277;28;20597;-69
2022/08/13 11:34:24;;;;;;;3.08;0.20;;;;;;;;;;5285244;28;20051;-69
2022/08/13 11:36:55;;;;;;;1.80;0.25;;;;;;;;;;5284830;28;20024;-69
2022/08/13 11:39:26;;;;;;;1.83;0.20;;;;;;;;;;5284193;28;20028;-69
2022/08/13 11:41:58;;;;;;;1.58;0.20;;;;;;;;;;5285112;28;20031;-69
2022/08/13 11:44:29;;;;;;;2.70;0.20;;;;;;;;;;5284868;28;20463;-68
2022/08/13 11:47:00;;;;;;;2.73;0.30;;;;;;;;;;5284406;28;20111;-69
2022/08/13 11:49:31;;;;;;;2.73;0.20;;;;;;;;;;5284607;28;20422;-69
2022/08/13 11:52:02;;;;;;;3.10;0.20;;;;;;;;;;5285221;28;20259;-69
2022/08/13 11:54:34;;;;;;;4.33;0.20;;;;;;;;;;5283910;28;20017;-69
2022/08/13 11:57:05;;;;;;;1.57;0.20;;;;;;;;;;5285163;28;20081;-69
2022/08/13 11:59:37;;;;;;;2.13;0.20;;;;;;;;;;5283886;28;20389;-69
2022/08/13 12:02:08;;;;;;;1.77;0.20;;;;;;;;;;5283889;28;20012;-69
2022/08/13 12:04:39;;;;;;;1.63;0.20;;;;;;;;;;5284225;28;20737;-69
2022/08/13 12:07:11;;;;;;;2.30;0.20;;;;;;;;;;5283800;28;20025;-68
2022/08/13 12:09:42;;;;;;;2.07;0.20;;;;;;;;;;5284262;28;20054;-69
2022/08/13 12:12:14;;;;;;;2.15;0.35;;;;;;;;;;5284631;28;20017;-69
2022/08/13 12:14:46;;;;;;;4.50;0.20;;;;;;;;;;5283307;28;20112;-69
2022/08/13 12:17:18;;;;;;;2.00;0.20;;;;;;;;;;5284633;28;20116;-69
2022/08/13 12:19:49;;;;;;;3.15;0.20;;;;;;;;;;5284369;28;20271;-69
2022/08/13 12:22:20;;;;;;;3.27;0.30;;;;;;;;;;5283494;28;20021;-69
2022/08/13 12:24:52;;;;;;;4.70;0.30;;;;;;;;;;5283735;28;20299;-69
2022/08/13 12:27:23;;;;;;;2.05;0.20;;;;;;;;;;5284041;28;20355;-70
2022/08/13 12:29:55;;;;;;;1.93;0.20;;;;;;;;;;5283102;28;20478;-69
2022/08/13 12:32:26;;;;;;;1.88;0.20;;;;;;;;;;5284202;28;20468;-69
2022/08/13 12:34:58;;;;;;;4.93;0.30;;;;;;;;;;5282953;28;20021;-70
2022/08/13 12:37:29;;;;;;;7.47;0.63;;;;;;;;;;5283615;28;20100;-69
2022/08/13 12:40:00;;;;;;;2.90;0.20;;;;;;;;;;5283988;28;20403;-70
2022/08/13 12:42:31;;;;;;;1.77;0.33;;;;;;;;;;5282860;28;20459;-69
2022/08/13 12:45:02;;;;;;;2.97;0.50;;;;;;;;;;5283666;28;20271;-69
2022/08/13 12:47:33;;;;;;;4.97;0.30;;;;;;;;;;5283432;28;20462;-70
2022/08/13 12:50:05;;;;;;;2.40;0.30;;;;;;;;;;5283082;28;20029;-69
2022/08/13 12:52:36;;;;;;;5.38;0.45;;;;;;;;;;5283394;28;20017;-69
2022/08/13 12:55:08;;;;;;;3.30;0.20;;;;;;;;;;5280221;28;20055;-69
2022/08/13 12:57:39;;;;;;;3.70;0.20;;;;;;;;;;5271990;28;20410;-69
2022/08/13 13:00:11;;;;;;;2.28;0.28;;;;;;;;;;5270821;28;20472;-69
2022/08/13 13:02:42;;;;;;;2.92;0.20;;;;;;;;;;5270826;28;20021;-70
2022/08/13 13:05:15;;;;;;;4.18;0.20;;;;;;;;;;5269688;28;20009;-69
2022/08/13 13:07:47;;;;;;;2.92;0.20;;;;;;;;;;5273167;28;20036;-70
2022/08/13 13:10:19;;;;;;;1.92;0.20;;;;;;;;;;5268812;28;20012;-70
2022/08/13 13:12:50;;;;;;;0.85;0.20;;;;;;;;;;5273354;28;20024;-70
2022/08/13 13:15:21;;;;;;;1.48;0.30;;;;;;;;;;5271853;28;20054;-72
2022/08/13 13:17:52;;;;;;;0.50;0.10;;;;;;;;;;5268992;28;20059;-71
2022/08/13 13:20:24;;;;;;;2.60;0.20;;;;;;;;;;5268572;28;20301;-70
2022/08/13 13:22:55;;;;;;;3.50;0.20;;;;;;;;;;5267873;28;20036;-70
2022/08/13 13:25:26;;;;;;;1.10;0.25;;;;;;;;;;5269361;28;20024;-70
2022/08/13 13:27:57;;;;;;;2.40;0.20;;;;;;;;;;5269583;28;20066;-70
2022/08/13 13:30:28;;;;;;;7.37;0.27;;;;;;;;;;5267906;28;20017;-70
2022/08/13 13:33:00;;;;;;;2.97;0.40;;;;;;;;;;5270251;28;20020;-70
2022/08/13 13:35:33;;;;;;;2.65;0.20;;;;;;;;;;5269276;28;20672;-70
2022/08/13 13:38:05;;;;;;;3.08;0.20;;;;;;;;;;5271816;28;20024;-70
2022/08/13 13:40:38;;;;;;;4.20;0.20;;;;;;;;;;5263481;28;20070;-70
2022/08/13 13:43:10;;;;;;;1.30;0.30;;;;;;;;;;5261734;28;20021;-70
2022/08/13 13:45:41;;;;;;;3.10;0.20;;;;;;;;;;5260898;28;20035;-70
2022/08/13 13:48:16;;;;;;;2.15;0.20;;;;;;;;;;5262101;28;20096;-70
2022/08/13 13:50:48;;;;;;;4.47;0.20;;;;;;;;;;5261309;28;20135;-70
2022/08/13 13:53:19;;;;;;;1.58;0.20;;;;;;;;;;5260984;28;20432;-70
2022/08/13 13:55:51;;;;;;;2.22;0.20;;;;;;;;;;5261445;28;20053;-70
2022/08/13 13:58:23;;;;;;;1.02;0.20;;;;;;;;;;5261822;28;20124;-70
2022/08/13 14:00:55;;;;;;;2.60;0.20;;;;;;;;;;5260074;28;20125;-69
2022/08/13 14:03:29;;;;;;;2.00;0.20;;;;;;;;;;5261074;28;20027;-70
2022/08/13 14:06:02;;;;;;;7.07;0.30;;;;;;;;;;5261128;28;20063;-71
2022/08/13 14:08:33;;;;;;;3.70;0.30;;;;;;;;;;5260233;28;20013;-69
2022/08/13 14:11:05;;;;;;;4.72;0.30;;;;;;;;;;5260919;28;20031;-69
2022/08/13 14:13:36;;;;;;;4.22;0.20;;;;;;;;;;5260116;28;20530;-70
2022/08/13 14:16:10;;;;;;;2.50;0.27;;;;;;;;;;5261461;28;20113;-71
2022/08/13 14:18:42;;;;;;;4.85;0.20;;;;;;;;;;5260798;28;20060;-71
2022/08/13 14:21:13;;;;;;;3.10;0.30;;;;;;;;;;5260474;28;20036;-71
2022/08/13 14:23:44;;;;;;;3.65;0.32;;;;;;;;;;5260741;28;20039;-71
2022/08/13 14:26:16;;;;;;;2.17;0.20;;;;;;;;;;5261082;28;20460;-71
2022/08/13 14:28:47;;;;;;;3.22;0.20;;;;;;;;;;5259796;28;20449;-71
2022/08/13 14:31:20;;;;;;;2.05;0.20;;;;;;;;;;5261038;28;20436;-71
2022/08/13 14:33:52;;;;;;;2.63;0.20;;;;;;;;;;5260786;28;20024;-71
2022/08/13 14:36:28;;;;;;;2.97;0.20;;;;;;;;;;5259907;28;20024;-71
2022/08/13 14:39:00;;;;;;;2.92;0.20;;;;;;;;;;5260875;28;20032;-70
2022/08/13 14:41:37;;;;;;;1.15;0.20;;;;;;;;;;5259632;28;20024;-69
2022/08/13 14:44:09;;;;;;;4.63;0.75;;;;;;;;;;5270373;28;20024;-69
2022/08/13 14:46:40;;;;;;;2.22;0.30;;;;;;;;;;5281013;28;20489;-70
2022/08/13 14:49:11;;;;;;;2.90;0.20;;;;;;;;;;5281233;28;20023;-70
2022/08/13 14:51:43;;;;;;;2.60;0.20;;;;;;;;;;5281593;28;20017;-70
2022/08/13 14:54:14;;;;;;;2.65;0.32;;;;;;;;;;5282025;28;20274;-70
2022/08/13 14:56:46;;;;;;;3.30;0.30;;;;;;;;;;5280657;28;20459;-70
2022/08/13 14:59:18;;;;;;;2.97;0.30;;;;;;;;;;5281246;28;20040;-70
2022/08/13 15:01:50;;;;;;;1.80;0.25;;;;;;;;;;5271541;28;20067;-70
2022/08/13 15:04:24;;;;;;;1.85;0.20;;;;;;;;;;5269423;28;20033;-70
2022/08/13 15:06:56;;;;;;;3.05;0.28;;;;;;;;;;5270345;28;20376;-70
2022/08/13 15:09:27;;;;;;;2.50;0.30;;;;;;;;;;5271848;28;20074;-70
2022/08/13 15:11:58;;;;;;;1.63;0.30;;;;;;;;;;5270196;28;20463;-70
2022/08/13 15:14:30;;;;;;;2.07;0.20;;;;;;;;;;5267223;28;20271;-69
2022/08/13 15:17:03;;;;;;;2.47;0.30;;;;;;;;;;5269228;28;20040;-69
2022/08/13 15:19:36;;;;;;;3.10;0.22;;;;;;;;;;5260513;28;20021;-72
2022/08/13 15:22:07;;;;;;;3.00;0.30;;;;;;;;;;5268635;28;20017;-69
2022/08/13 15:24:38;;;;;;;2.43;0.20;;;;;;;;;;5270015;28;20137;-69
2022/08/13 15:27:21;;;;;;;4.30;0.30;;;;;;;;;;5269709;28;20071;-70
2022/08/13 15:29:54;;;;;;;2.47;0.20;;;;;;;;;;5268076;28;20382;-68
2022/08/13 15:32:26;;;;;;;2.63;0.20;;;;;;;;;;5259514;28;20021;-71
2022/08/13 15:34:58;;;;;;;2.45;0.20;;;;;;;;;;5268248;28;20482;-68
2022/08/13 15:37:29;;;;;;;3.00;0.20;;;;;;;;;;5269570;28;20032;-68
2022/08/13 15:40:00;;;;;;;3.28;0.20;;;;;;;;;;5274936;28;20528;-68
2022/08/13 15:42:32;;;;;;;2.87;0.30;;;;;;;;;;5281590;28;20047;-68
2022/08/13 15:45:05;;;;;;;2.87;0.20;;;;;;;;;;5280679;28;20601;-68